sensor_id;sensor_type;location;lat;lon;timestamp;P1;durP1;ratioP1;P2;durP2;ratioP2
11052;SDS011;55230;42.602;23.470;2022-10-16T00:00:38;10.17;;;7.37;;
11052;SDS011;55230;42.602;23.470;2022-10-16T00:03:05;7.77;;;6.83;;
11052;SDS011;55230;42.602;23.470;2022-10-16T00:05:37;8.00;;;7.17;;
11052;SDS011;55230;42.602;23.470;2022-10-16T00:08:05;10.80;;;8.17;;
11052;SDS011;55230;42.602;23.470;2022-10-16T00:10:32;8.03;;;7.17;;
11052;SDS011;55230;42.602;23.470;2022-10-16T00:13:00;11.33;;;6.60;;
11052;SDS011;55230;42.602;23.470;2022-10-16T00:15:27;7.70;;;6.90;;
11052;SDS011;55230;42.602;23.470;2022-10-16T00:17:54;8.17;;;7.33;;
11052;SDS011;55230;42.602;23.470;2022-10-16T00:20:21;10.63;;;7.97;;
11052;SDS011;55230;42.602;23.470;2022-10-16T00:22:47;9.30;;;7.33;;
11052;SDS011;55230;42.602;23.470;2022-10-16T00:25:14;9.50;;;7.80;;
11052;SDS011;55230;42.602;23.470;2022-10-16T00:27:41;10.03;;;7.80;;
11052;SDS011;55230;42.602;23.470;2022-10-16T00:30:09;8.47;;;6.30;;
11052;SDS011;55230;42.602;23.470;2022-10-16T00:32:36;7.50;;;6.67;;
11052;SDS011;55230;42.602;23.470;2022-10-16T00:35:04;7.97;;;6.47;;
11052;SDS011;55230;42.602;23.470;2022-10-16T00:37:31;8.60;;;7.40;;
11052;SDS011;55230;42.602;23.470;2022-10-16T00:39:58;8.90;;;8.00;;
11052;SDS011;55230;42.602;23.470;2022-10-16T00:42:24;7.83;;;6.60;;
11052;SDS011;55230;42.602;23.470;2022-10-16T00:44:52;8.20;;;6.60;;
11052;SDS011;55230;42.602;23.470;2022-10-16T00:47:24;9.53;;;7.20;;
11052;SDS011;55230;42.602;23.470;2022-10-16T00:49:56;7.97;;;7.00;;
11052;SDS011;55230;42.602;23.470;2022-10-16T00:52:26;7.70;;;6.50;;
11052;SDS011;55230;42.602;23.470;2022-10-16T00:54:53;7.97;;;6.30;;
11052;SDS011;55230;42.602;23.470;2022-10-16T00:57:21;8.00;;;6.30;;
11052;SDS011;55230;42.602;23.470;2022-10-16T00:59:49;8.13;;;7.27;;
11052;SDS011;55230;42.602;23.470;2022-10-16T01:02:16;8.93;;;7.43;;
11052;SDS011;55230;42.602;23.470;2022-10-16T01:04:45;8.47;;;7.23;;
11052;SDS011;55230;42.602;23.470;2022-10-16T01:07:14;8.97;;;6.90;;
11052;SDS011;55230;42.602;23.470;2022-10-16T01:09:51;8.97;;;6.73;;
11052;SDS011;55230;42.602;23.470;2022-10-16T01:12:29;7.50;;;6.70;;
11052;SDS011;55230;42.602;23.470;2022-10-16T01:15:04;9.00;;;6.70;;
11052;SDS011;55230;42.602;23.470;2022-10-16T01:17:38;8.70;;;6.90;;
11052;SDS011;55230;42.602;23.470;2022-10-16T01:20:12;8.07;;;7.03;;
11052;SDS011;55230;42.602;23.470;2022-10-16T01:22:55;10.17;;;7.20;;
11052;SDS011;55230;42.602;23.470;2022-10-16T01:25:30;9.87;;;7.17;;
11052;SDS011;55230;42.602;23.470;2022-10-16T01:28:07;7.93;;;6.93;;
11052;SDS011;55230;42.602;23.470;2022-10-16T01:30:37;8.60;;;6.30;;
11052;SDS011;55230;42.602;23.470;2022-10-16T01:33:08;8.57;;;7.53;;
11052;SDS011;55230;42.602;23.470;2022-10-16T01:35:40;7.63;;;6.63;;
11052;SDS011;55230;42.602;23.470;2022-10-16T01:38:12;10.13;;;7.90;;
11052;SDS011;55230;42.602;23.470;2022-10-16T01:40:45;9.80;;;7.63;;
11052;SDS011;55230;42.602;23.470;2022-10-16T01:43:19;12.40;;;7.77;;
11052;SDS011;55230;42.602;23.470;2022-10-16T01:45:48;9.57;;;7.70;;
11052;SDS011;55230;42.602;23.470;2022-10-16T01:48:17;9.13;;;7.97;;
11052;SDS011;55230;42.602;23.470;2022-10-16T01:50:49;10.40;;;7.70;;
11052;SDS011;55230;42.602;23.470;2022-10-16T01:53:21;11.40;;;7.93;;
11052;SDS011;55230;42.602;23.470;2022-10-16T01:55:50;11.23;;;7.63;;
11052;SDS011;55230;42.602;23.470;2022-10-16T01:58:22;10.97;;;8.37;;
11052;SDS011;55230;42.602;23.470;2022-10-16T02:00:51;8.37;;;7.53;;
11052;SDS011;55230;42.602;23.470;2022-10-16T02:03:20;9.00;;;6.80;;
11052;SDS011;55230;42.602;23.470;2022-10-16T02:05:49;10.40;;;7.23;;
11052;SDS011;55230;42.602;23.470;2022-10-16T02:08:19;9.03;;;7.37;;
11052;SDS011;55230;42.602;23.470;2022-10-16T02:10:47;8.10;;;7.17;;
11052;SDS011;55230;42.602;23.470;2022-10-16T02:13:15;8.33;;;7.43;;
11052;SDS011;55230;42.602;23.470;2022-10-16T02:15:47;9.30;;;7.20;;
11052;SDS011;55230;42.602;23.470;2022-10-16T02:18:14;9.87;;;7.43;;
11052;SDS011;55230;42.602;23.470;2022-10-16T02:20:43;9.43;;;7.03;;
11052;SDS011;55230;42.602;23.470;2022-10-16T02:23:18;8.17;;;7.17;;
11052;SDS011;55230;42.602;23.470;2022-10-16T02:25:49;8.27;;;7.03;;
11052;SDS011;55230;42.602;23.470;2022-10-16T02:28:18;10.13;;;7.73;;
11052;SDS011;55230;42.602;23.470;2022-10-16T02:30:52;8.33;;;6.43;;
11052;SDS011;55230;42.602;23.470;2022-10-16T02:33:23;10.40;;;6.70;;
11052;SDS011;55230;42.602;23.470;2022-10-16T02:35:51;8.40;;;6.23;;
11052;SDS011;55230;42.602;23.470;2022-10-16T02:38:20;10.10;;;8.13;;
11052;SDS011;55230;42.602;23.470;2022-10-16T02:40:48;9.60;;;7.47;;
11052;SDS011;55230;42.602;23.470;2022-10-16T02:43:15;8.30;;;6.77;;
11052;SDS011;55230;42.602;23.470;2022-10-16T02:45:42;10.13;;;6.80;;
11052;SDS011;55230;42.602;23.470;2022-10-16T02:48:11;9.30;;;7.90;;
11052;SDS011;55230;42.602;23.470;2022-10-16T02:50:37;11.10;;;8.60;;
11052;SDS011;55230;42.602;23.470;2022-10-16T02:53:04;14.00;;;11.80;;
11052;SDS011;55230;42.602;23.470;2022-10-16T02:55:31;8.73;;;7.77;;
11052;SDS011;55230;42.602;23.470;2022-10-16T02:57:58;9.43;;;7.77;;
11052;SDS011;55230;42.602;23.470;2022-10-16T03:00:24;8.80;;;7.90;;
11052;SDS011;55230;42.602;23.470;2022-10-16T03:02:51;14.47;;;9.00;;
11052;SDS011;55230;42.602;23.470;2022-10-16T03:05:19;13.77;;;11.63;;
11052;SDS011;55230;42.602;23.470;2022-10-16T03:07:46;18.77;;;13.93;;
11052;SDS011;55230;42.602;23.470;2022-10-16T03:10:13;46.93;;;33.13;;
11052;SDS011;55230;42.602;23.470;2022-10-16T03:12:39;29.73;;;24.73;;
11052;SDS011;55230;42.602;23.470;2022-10-16T03:15:07;23.00;;;17.60;;
11052;SDS011;55230;42.602;23.470;2022-10-16T03:17:34;15.00;;;12.80;;
11052;SDS011;55230;42.602;23.470;2022-10-16T03:20:01;16.30;;;13.67;;
11052;SDS011;55230;42.602;23.470;2022-10-16T03:22:29;21.97;;;16.97;;
11052;SDS011;55230;42.602;23.470;2022-10-16T03:24:56;17.27;;;12.83;;
11052;SDS011;55230;42.602;23.470;2022-10-16T03:27:22;16.20;;;12.40;;
11052;SDS011;55230;42.602;23.470;2022-10-16T03:29:49;16.10;;;12.47;;
11052;SDS011;55230;42.602;23.470;2022-10-16T03:32:16;14.73;;;12.00;;
11052;SDS011;55230;42.602;23.470;2022-10-16T03:34:43;16.83;;;11.60;;
11052;SDS011;55230;42.602;23.470;2022-10-16T03:37:10;16.43;;;12.60;;
11052;SDS011;55230;42.602;23.470;2022-10-16T03:39:38;12.93;;;10.30;;
11052;SDS011;55230;42.602;23.470;2022-10-16T03:42:05;13.40;;;10.50;;
11052;SDS011;55230;42.602;23.470;2022-10-16T03:44:32;14.33;;;11.80;;
11052;SDS011;55230;42.602;23.470;2022-10-16T03:46:58;17.37;;;13.13;;
11052;SDS011;55230;42.602;23.470;2022-10-16T03:49:25;16.07;;;13.17;;
11052;SDS011;55230;42.602;23.470;2022-10-16T03:51:52;12.67;;;10.83;;
11052;SDS011;55230;42.602;23.470;2022-10-16T03:54:18;12.93;;;10.47;;
11052;SDS011;55230;42.602;23.470;2022-10-16T03:56:48;12.67;;;10.37;;
11052;SDS011;55230;42.602;23.470;2022-10-16T03:59:15;15.07;;;10.23;;
11052;SDS011;55230;42.602;23.470;2022-10-16T04:01:42;13.30;;;10.53;;
11052;SDS011;55230;42.602;23.470;2022-10-16T04:04:08;16.03;;;11.70;;
11052;SDS011;55230;42.602;23.470;2022-10-16T04:06:35;12.30;;;10.40;;
11052;SDS011;55230;42.602;23.470;2022-10-16T04:09:02;11.30;;;10.00;;
11052;SDS011;55230;42.602;23.470;2022-10-16T04:11:29;10.00;;;9.00;;
11052;SDS011;55230;42.602;23.470;2022-10-16T04:13:57;13.20;;;11.47;;
11052;SDS011;55230;42.602;23.470;2022-10-16T04:16:24;11.60;;;10.33;;
11052;SDS011;55230;42.602;23.470;2022-10-16T04:18:50;12.93;;;10.83;;
11052;SDS011;55230;42.602;23.470;2022-10-16T04:21:17;13.63;;;11.77;;
11052;SDS011;55230;42.602;23.470;2022-10-16T04:23:44;15.23;;;12.13;;
11052;SDS011;55230;42.602;23.470;2022-10-16T04:26:11;14.37;;;9.33;;
11052;SDS011;55230;42.602;23.470;2022-10-16T04:28:38;12.23;;;9.97;;
11052;SDS011;55230;42.602;23.470;2022-10-16T04:31:06;11.17;;;9.03;;
11052;SDS011;55230;42.602;23.470;2022-10-16T04:33:33;13.50;;;9.90;;
11052;SDS011;55230;42.602;23.470;2022-10-16T04:36:01;14.20;;;10.20;;
11052;SDS011;55230;42.602;23.470;2022-10-16T04:38:28;13.27;;;11.23;;
11052;SDS011;55230;42.602;23.470;2022-10-16T04:40:56;14.93;;;10.83;;
11052;SDS011;55230;42.602;23.470;2022-10-16T04:43:22;10.93;;;9.47;;
11052;SDS011;55230;42.602;23.470;2022-10-16T04:45:49;12.87;;;10.43;;
11052;SDS011;55230;42.602;23.470;2022-10-16T04:48:18;17.00;;;12.53;;
11052;SDS011;55230;42.602;23.470;2022-10-16T04:50:44;44.57;;;28.20;;
11052;SDS011;55230;42.602;23.470;2022-10-16T04:53:11;26.93;;;18.87;;
11052;SDS011;55230;42.602;23.470;2022-10-16T04:55:38;16.10;;;12.83;;
11052;SDS011;55230;42.602;23.470;2022-10-16T04:58:05;14.07;;;12.43;;
11052;SDS011;55230;42.602;23.470;2022-10-16T05:00:32;14.23;;;11.70;;
11052;SDS011;55230;42.602;23.470;2022-10-16T05:02:59;12.57;;;10.90;;
11052;SDS011;55230;42.602;23.470;2022-10-16T05:05:27;10.43;;;9.33;;
11052;SDS011;55230;42.602;23.470;2022-10-16T05:07:54;12.90;;;10.17;;
11052;SDS011;55230;42.602;23.470;2022-10-16T05:10:21;10.80;;;9.50;;
11052;SDS011;55230;42.602;23.470;2022-10-16T05:12:48;11.87;;;10.23;;
11052;SDS011;55230;42.602;23.470;2022-10-16T05:15:15;13.20;;;9.87;;
11052;SDS011;55230;42.602;23.470;2022-10-16T05:17:41;11.17;;;9.70;;
11052;SDS011;55230;42.602;23.470;2022-10-16T05:20:08;14.17;;;11.07;;
11052;SDS011;55230;42.602;23.470;2022-10-16T05:22:36;33.33;;;23.03;;
11052;SDS011;55230;42.602;23.470;2022-10-16T05:25:04;16.73;;;10.40;;
11052;SDS011;55230;42.602;23.470;2022-10-16T05:27:31;14.53;;;9.57;;
11052;SDS011;55230;42.602;23.470;2022-10-16T05:29:57;12.57;;;9.63;;
11052;SDS011;55230;42.602;23.470;2022-10-16T05:32:24;15.43;;;11.13;;
11052;SDS011;55230;42.602;23.470;2022-10-16T05:34:51;18.10;;;12.33;;
11052;SDS011;55230;42.602;23.470;2022-10-16T05:37:18;15.97;;;11.47;;
11052;SDS011;55230;42.602;23.470;2022-10-16T05:39:46;14.03;;;10.90;;
11052;SDS011;55230;42.602;23.470;2022-10-16T05:42:12;14.67;;;10.23;;
11052;SDS011;55230;42.602;23.470;2022-10-16T05:44:39;12.87;;;10.00;;
11052;SDS011;55230;42.602;23.470;2022-10-16T05:47:06;13.27;;;9.87;;
11052;SDS011;55230;42.602;23.470;2022-10-16T05:49:33;14.80;;;10.00;;
11052;SDS011;55230;42.602;23.470;2022-10-16T05:51:59;16.30;;;12.30;;
11052;SDS011;55230;42.602;23.470;2022-10-16T05:54:26;20.57;;;16.23;;
11052;SDS011;55230;42.602;23.470;2022-10-16T05:56:54;42.73;;;28.70;;
11052;SDS011;55230;42.602;23.470;2022-10-16T05:59:21;35.67;;;29.50;;
11052;SDS011;55230;42.602;23.470;2022-10-16T06:01:48;31.40;;;23.43;;
11052;SDS011;55230;42.602;23.470;2022-10-16T06:04:15;24.23;;;17.40;;
11052;SDS011;55230;42.602;23.470;2022-10-16T06:06:42;27.57;;;19.53;;
11052;SDS011;55230;42.602;23.470;2022-10-16T06:09:10;23.13;;;16.20;;
11052;SDS011;55230;42.602;23.470;2022-10-16T06:11:37;19.73;;;14.03;;
11052;SDS011;55230;42.602;23.470;2022-10-16T06:14:05;12.00;;;10.73;;
11052;SDS011;55230;42.602;23.470;2022-10-16T06:16:32;13.53;;;11.73;;
11052;SDS011;55230;42.602;23.470;2022-10-16T06:19:00;17.80;;;11.03;;
11052;SDS011;55230;42.602;23.470;2022-10-16T06:21:27;14.40;;;10.30;;
11052;SDS011;55230;42.602;23.470;2022-10-16T06:23:55;12.73;;;10.00;;
11052;SDS011;55230;42.602;23.470;2022-10-16T06:26:24;14.13;;;9.97;;
11052;SDS011;55230;42.602;23.470;2022-10-16T06:28:53;15.33;;;11.33;;
11052;SDS011;55230;42.602;23.470;2022-10-16T06:31:21;14.90;;;11.20;;
11052;SDS011;55230;42.602;23.470;2022-10-16T06:33:52;12.37;;;10.73;;
11052;SDS011;55230;42.602;23.470;2022-10-16T06:36:20;14.80;;;10.40;;
11052;SDS011;55230;42.602;23.470;2022-10-16T06:38:47;15.93;;;11.33;;
11052;SDS011;55230;42.602;23.470;2022-10-16T06:41:14;14.17;;;10.73;;
11052;SDS011;55230;42.602;23.470;2022-10-16T06:43:46;14.97;;;10.77;;
11052;SDS011;55230;42.602;23.470;2022-10-16T06:46:14;15.90;;;11.77;;
11052;SDS011;55230;42.602;23.470;2022-10-16T06:48:44;14.43;;;10.97;;
11052;SDS011;55230;42.602;23.470;2022-10-16T06:51:12;17.50;;;10.70;;
11052;SDS011;55230;42.602;23.470;2022-10-16T06:53:41;15.27;;;11.37;;
11052;SDS011;55230;42.602;23.470;2022-10-16T06:56:09;15.13;;;11.20;;
11052;SDS011;55230;42.602;23.470;2022-10-16T06:58:36;17.57;;;10.77;;
11052;SDS011;55230;42.602;23.470;2022-10-16T07:01:04;17.67;;;10.87;;
11052;SDS011;55230;42.602;23.470;2022-10-16T07:03:32;14.80;;;11.00;;
11052;SDS011;55230;42.602;23.470;2022-10-16T07:06:02;13.57;;;10.10;;
11052;SDS011;55230;42.602;23.470;2022-10-16T07:08:30;14.50;;;12.00;;
11052;SDS011;55230;42.602;23.470;2022-10-16T07:10:59;14.87;;;11.20;;
11052;SDS011;55230;42.602;23.470;2022-10-16T07:13:26;13.97;;;10.80;;
11052;SDS011;55230;42.602;23.470;2022-10-16T07:15:53;15.00;;;10.63;;
11052;SDS011;55230;42.602;23.470;2022-10-16T07:18:19;16.07;;;11.80;;
11052;SDS011;55230;42.602;23.470;2022-10-16T07:20:46;13.20;;;10.80;;
11052;SDS011;55230;42.602;23.470;2022-10-16T07:23:15;14.00;;;10.50;;
11052;SDS011;55230;42.602;23.470;2022-10-16T07:25:41;17.63;;;11.60;;
11052;SDS011;55230;42.602;23.470;2022-10-16T07:28:08;12.97;;;10.73;;
11052;SDS011;55230;42.602;23.470;2022-10-16T07:30:35;14.00;;;11.97;;
11052;SDS011;55230;42.602;23.470;2022-10-16T07:33:03;15.97;;;11.47;;
11052;SDS011;55230;42.602;23.470;2022-10-16T07:35:29;15.43;;;11.60;;
11052;SDS011;55230;42.602;23.470;2022-10-16T07:37:56;15.13;;;11.27;;
11052;SDS011;55230;42.602;23.470;2022-10-16T07:40:24;12.80;;;10.37;;
11052;SDS011;55230;42.602;23.470;2022-10-16T07:42:52;14.77;;;10.30;;
11052;SDS011;55230;42.602;23.470;2022-10-16T07:45:19;14.20;;;9.87;;
11052;SDS011;55230;42.602;23.470;2022-10-16T07:47:45;12.40;;;9.33;;
11052;SDS011;55230;42.602;23.470;2022-10-16T07:50:12;10.80;;;8.43;;
11052;SDS011;55230;42.602;23.470;2022-10-16T07:52:39;13.97;;;10.40;;
11052;SDS011;55230;42.602;23.470;2022-10-16T07:55:06;11.30;;;8.60;;
11052;SDS011;55230;42.602;23.470;2022-10-16T07:57:35;10.30;;;8.47;;
11052;SDS011;55230;42.602;23.470;2022-10-16T08:00:01;11.13;;;8.23;;
11052;SDS011;55230;42.602;23.470;2022-10-16T08:02:29;9.23;;;8.30;;
11052;SDS011;55230;42.602;23.470;2022-10-16T08:04:56;9.87;;;7.43;;
11052;SDS011;55230;42.602;23.470;2022-10-16T08:07:22;8.77;;;7.00;;
11052;SDS011;55230;42.602;23.470;2022-10-16T08:09:49;11.30;;;7.40;;
11052;SDS011;55230;42.602;23.470;2022-10-16T08:12:17;8.77;;;6.70;;
11052;SDS011;55230;42.602;23.470;2022-10-16T08:14:45;8.57;;;6.67;;
11052;SDS011;55230;42.602;23.470;2022-10-16T08:17:13;8.47;;;6.63;;
11052;SDS011;55230;42.602;23.470;2022-10-16T08:19:43;6.23;;;5.63;;
11052;SDS011;55230;42.602;23.470;2022-10-16T08:22:11;7.17;;;6.07;;
11052;SDS011;55230;42.602;23.470;2022-10-16T08:24:38;9.37;;;6.40;;
11052;SDS011;55230;42.602;23.470;2022-10-16T08:27:04;6.53;;;5.90;;
11052;SDS011;55230;42.602;23.470;2022-10-16T08:29:31;8.10;;;5.40;;
11052;SDS011;55230;42.602;23.470;2022-10-16T08:32:00;5.60;;;5.10;;
11052;SDS011;55230;42.602;23.470;2022-10-16T08:34:26;6.50;;;5.40;;
11052;SDS011;55230;42.602;23.470;2022-10-16T08:36:53;6.50;;;4.67;;
11052;SDS011;55230;42.602;23.470;2022-10-16T08:39:20;6.00;;;5.13;;
11052;SDS011;55230;42.602;23.470;2022-10-16T08:41:59;7.67;;;5.03;;
11052;SDS011;55230;42.602;23.470;2022-10-16T08:44:58;7.50;;;5.40;;
11052;SDS011;55230;42.602;23.470;2022-10-16T08:47:38;5.63;;;4.70;;
11052;SDS011;55230;42.602;23.470;2022-10-16T08:50:15;7.87;;;5.43;;
11052;SDS011;55230;42.602;23.470;2022-10-16T08:52:50;6.87;;;4.77;;
11052;SDS011;55230;42.602;23.470;2022-10-16T08:55:29;5.90;;;4.80;;
11052;SDS011;55230;42.602;23.470;2022-10-16T08:57:59;4.90;;;4.23;;
11052;SDS011;55230;42.602;23.470;2022-10-16T09:00:26;4.83;;;4.33;;
11052;SDS011;55230;42.602;23.470;2022-10-16T09:02:59;6.00;;;4.67;;
11052;SDS011;55230;42.602;23.470;2022-10-16T09:05:49;8.50;;;5.43;;
11052;SDS011;55230;42.602;23.470;2022-10-16T09:08:26;5.80;;;4.83;;
11052;SDS011;55230;42.602;23.470;2022-10-16T09:11:02;7.60;;;5.40;;
11052;SDS011;55230;42.602;23.470;2022-10-16T09:13:39;6.40;;;5.03;;
11052;SDS011;55230;42.602;23.470;2022-10-16T09:16:15;5.90;;;5.33;;
11052;SDS011;55230;42.602;23.470;2022-10-16T09:18:50;7.07;;;5.20;;
11052;SDS011;55230;42.602;23.470;2022-10-16T09:21:25;7.23;;;5.30;;
11052;SDS011;55230;42.602;23.470;2022-10-16T09:23:56;5.33;;;4.83;;
11052;SDS011;55230;42.602;23.470;2022-10-16T09:26:24;5.77;;;5.23;;
11052;SDS011;55230;42.602;23.470;2022-10-16T09:28:51;6.83;;;5.10;;
11052;SDS011;55230;42.602;23.470;2022-10-16T09:31:19;7.60;;;4.63;;
11052;SDS011;55230;42.602;23.470;2022-10-16T09:33:50;7.07;;;5.43;;
11052;SDS011;55230;42.602;23.470;2022-10-16T09:36:20;5.87;;;4.80;;
11052;SDS011;55230;42.602;23.470;2022-10-16T09:38:49;6.13;;;5.13;;
11052;SDS011;55230;42.602;23.470;2022-10-16T09:41:19;9.03;;;6.30;;
11052;SDS011;55230;42.602;23.470;2022-10-16T09:43:48;9.40;;;6.23;;
11052;SDS011;55230;42.602;23.470;2022-10-16T09:46:25;7.20;;;5.93;;
11052;SDS011;55230;42.602;23.470;2022-10-16T09:48:56;6.60;;;5.83;;
11052;SDS011;55230;42.602;23.470;2022-10-16T09:51:26;7.50;;;6.17;;
11052;SDS011;55230;42.602;23.470;2022-10-16T09:53:54;6.63;;;5.93;;
11052;SDS011;55230;42.602;23.470;2022-10-16T09:56:23;8.13;;;6.63;;
11052;SDS011;55230;42.602;23.470;2022-10-16T09:58:51;8.73;;;6.33;;
11052;SDS011;55230;42.602;23.470;2022-10-16T10:01:20;8.70;;;6.33;;
11052;SDS011;55230;42.602;23.470;2022-10-16T10:03:49;6.33;;;5.50;;
11052;SDS011;55230;42.602;23.470;2022-10-16T10:06:20;8.60;;;6.30;;
11052;SDS011;55230;42.602;23.470;2022-10-16T10:08:56;9.90;;;6.80;;
11052;SDS011;55230;42.602;23.470;2022-10-16T10:14:24;8.47;;;6.30;;
11052;SDS011;55230;42.602;23.470;2022-10-16T10:17:02;8.57;;;6.53;;
11052;SDS011;55230;42.602;23.470;2022-10-16T10:19:38;6.83;;;6.23;;
11052;SDS011;55230;42.602;23.470;2022-10-16T10:22:15;9.73;;;6.70;;
11052;SDS011;55230;42.602;23.470;2022-10-16T10:24:44;6.60;;;5.90;;
11052;SDS011;55230;42.602;23.470;2022-10-16T10:27:12;6.77;;;5.80;;
11052;SDS011;55230;42.602;23.470;2022-10-16T10:29:45;7.50;;;5.60;;
11052;SDS011;55230;42.602;23.470;2022-10-16T10:32:23;5.50;;;4.93;;
11052;SDS011;55230;42.602;23.470;2022-10-16T10:35:03;5.73;;;5.13;;
11052;SDS011;55230;42.602;23.470;2022-10-16T10:40:38;5.43;;;4.53;;
11052;SDS011;55230;42.602;23.470;2022-10-16T10:43:16;5.67;;;4.63;;
11052;SDS011;55230;42.602;23.470;2022-10-16T10:45:55;6.10;;;4.70;;
11052;SDS011;55230;42.602;23.470;2022-10-16T10:48:38;5.60;;;4.37;;
11052;SDS011;55230;42.602;23.470;2022-10-16T10:51:19;7.17;;;4.10;;
11052;SDS011;55230;42.602;23.470;2022-10-16T10:53:59;4.10;;;3.70;;
11052;SDS011;55230;42.602;23.470;2022-10-16T10:56:39;4.57;;;3.80;;
11052;SDS011;55230;42.602;23.470;2022-10-16T10:59:17;4.53;;;3.50;;
11052;SDS011;55230;42.602;23.470;2022-10-16T11:01:59;4.23;;;3.57;;
11052;SDS011;55230;42.602;23.470;2022-10-16T11:04:31;4.83;;;3.60;;
11052;SDS011;55230;42.602;23.470;2022-10-16T11:07:06;3.83;;;3.43;;
11052;SDS011;55230;42.602;23.470;2022-10-16T11:09:42;4.63;;;3.00;;
11052;SDS011;55230;42.602;23.470;2022-10-16T11:12:14;4.03;;;3.30;;
11052;SDS011;55230;42.602;23.470;2022-10-16T11:14:46;4.47;;;3.60;;
11052;SDS011;55230;42.602;23.470;2022-10-16T11:17:22;5.10;;;3.70;;
11052;SDS011;55230;42.602;23.470;2022-10-16T11:19:52;3.80;;;3.50;;
11052;SDS011;55230;42.602;23.470;2022-10-16T11:22:23;3.17;;;2.87;;
11052;SDS011;55230;42.602;23.470;2022-10-16T11:24:59;3.70;;;2.97;;
11052;SDS011;55230;42.602;23.470;2022-10-16T11:27:34;2.83;;;2.63;;
11052;SDS011;55230;42.602;23.470;2022-10-16T11:30:05;2.90;;;2.60;;
11052;SDS011;55230;42.602;23.470;2022-10-16T11:32:47;2.93;;;2.60;;
11052;SDS011;55230;42.602;23.470;2022-10-16T11:35:32;4.00;;;3.00;;
11052;SDS011;55230;42.602;23.470;2022-10-16T11:38:08;3.27;;;2.93;;
11052;SDS011;55230;42.602;23.470;2022-10-16T11:40:41;5.23;;;3.53;;
11052;SDS011;55230;42.602;23.470;2022-10-16T11:43:17;3.43;;;3.13;;
11052;SDS011;55230;42.602;23.470;2022-10-16T11:45:49;4.10;;;3.70;;
11052;SDS011;55230;42.602;23.470;2022-10-16T11:48:20;3.60;;;3.27;;
11052;SDS011;55230;42.602;23.470;2022-10-16T11:50:53;3.60;;;3.30;;
11052;SDS011;55230;42.602;23.470;2022-10-16T11:53:24;3.63;;;3.03;;
11052;SDS011;55230;42.602;23.470;2022-10-16T11:56:07;3.40;;;2.53;;
11052;SDS011;55230;42.602;23.470;2022-10-16T11:58:35;4.23;;;3.20;;
11052;SDS011;55230;42.602;23.470;2022-10-16T12:01:13;3.13;;;2.80;;
11052;SDS011;55230;42.602;23.470;2022-10-16T12:03:46;2.50;;;2.30;;
11052;SDS011;55230;42.602;23.470;2022-10-16T12:06:23;4.30;;;2.60;;
11052;SDS011;55230;42.602;23.470;2022-10-16T12:08:57;5.93;;;4.47;;
11052;SDS011;55230;42.602;23.470;2022-10-16T12:11:35;4.97;;;3.37;;
11052;SDS011;55230;42.602;23.470;2022-10-16T12:14:04;3.00;;;2.77;;
11052;SDS011;55230;42.602;23.470;2022-10-16T12:16:33;3.00;;;2.80;;
11052;SDS011;55230;42.602;23.470;2022-10-16T12:21:46;4.30;;;2.70;;
11052;SDS011;55230;42.602;23.470;2022-10-16T12:27:19;3.57;;;2.80;;
11052;SDS011;55230;42.602;23.470;2022-10-16T12:29:53;3.43;;;3.13;;
11052;SDS011;55230;42.602;23.470;2022-10-16T12:32:23;3.67;;;3.30;;
11052;SDS011;55230;42.602;23.470;2022-10-16T12:34:55;3.40;;;3.10;;
11052;SDS011;55230;42.602;23.470;2022-10-16T12:37:25;4.27;;;2.60;;
11052;SDS011;55230;42.602;23.470;2022-10-16T12:39:54;5.87;;;2.73;;
11052;SDS011;55230;42.602;23.470;2022-10-16T12:42:31;3.37;;;3.07;;
11052;SDS011;55230;42.602;23.470;2022-10-16T12:44:59;5.73;;;3.90;;
11052;SDS011;55230;42.602;23.470;2022-10-16T12:47:37;3.53;;;3.20;;
11052;SDS011;55230;42.602;23.470;2022-10-16T12:50:24;6.27;;;4.70;;
11052;SDS011;55230;42.602;23.470;2022-10-16T12:52:53;10.13;;;8.20;;
11052;SDS011;55230;42.602;23.470;2022-10-16T12:55:21;4.33;;;3.10;;
11052;SDS011;55230;42.602;23.470;2022-10-16T12:58:03;5.07;;;3.00;;
11052;SDS011;55230;42.602;23.470;2022-10-16T13:00:41;2.93;;;2.53;;
11052;SDS011;55230;42.602;23.470;2022-10-16T13:03:24;2.87;;;2.63;;
11052;SDS011;55230;42.602;23.470;2022-10-16T13:06:07;2.77;;;2.30;;
11052;SDS011;55230;42.602;23.470;2022-10-16T13:08:48;2.93;;;2.73;;
11052;SDS011;55230;42.602;23.470;2022-10-16T13:11:41;5.23;;;3.20;;
11052;SDS011;55230;42.602;23.470;2022-10-16T13:17:25;3.83;;;3.20;;
11052;SDS011;55230;42.602;23.470;2022-10-16T13:20:04;6.20;;;2.83;;
11052;SDS011;55230;42.602;23.470;2022-10-16T13:22:44;4.93;;;4.00;;
11052;SDS011;55230;42.602;23.470;2022-10-16T13:25:22;4.33;;;3.40;;
11052;SDS011;55230;42.602;23.470;2022-10-16T13:27:55;5.13;;;3.37;;
11052;SDS011;55230;42.602;23.470;2022-10-16T13:30:32;3.67;;;2.80;;
11052;SDS011;55230;42.602;23.470;2022-10-16T13:33:06;4.00;;;3.13;;
11052;SDS011;55230;42.602;23.470;2022-10-16T13:35:46;3.33;;;3.00;;
11052;SDS011;55230;42.602;23.470;2022-10-16T13:38:15;3.67;;;2.97;;
11052;SDS011;55230;42.602;23.470;2022-10-16T13:40:53;4.07;;;3.13;;
11052;SDS011;55230;42.602;23.470;2022-10-16T13:43:22;3.13;;;2.60;;
11052;SDS011;55230;42.602;23.470;2022-10-16T13:45:54;2.60;;;2.40;;
11052;SDS011;55230;42.602;23.470;2022-10-16T13:48:22;2.97;;;2.70;;
11052;SDS011;55230;42.602;23.470;2022-10-16T13:50:58;3.43;;;2.30;;
11052;SDS011;55230;42.602;23.470;2022-10-16T13:53:30;2.83;;;2.63;;
11052;SDS011;55230;42.602;23.470;2022-10-16T13:55:58;3.33;;;2.60;;
11052;SDS011;55230;42.602;23.470;2022-10-16T13:58:25;3.23;;;2.60;;
11052;SDS011;55230;42.602;23.470;2022-10-16T14:00:54;2.87;;;2.67;;
11052;SDS011;55230;42.602;23.470;2022-10-16T14:03:23;3.20;;;2.90;;
11052;SDS011;55230;42.602;23.470;2022-10-16T14:05:51;2.47;;;2.10;;
11052;SDS011;55230;42.602;23.470;2022-10-16T14:08:19;2.90;;;2.60;;
11052;SDS011;55230;42.602;23.470;2022-10-16T14:10:48;4.03;;;3.00;;
11052;SDS011;55230;42.602;23.470;2022-10-16T14:13:17;3.10;;;2.80;;
11052;SDS011;55230;42.602;23.470;2022-10-16T14:15:46;5.57;;;3.10;;
11052;SDS011;55230;42.602;23.470;2022-10-16T14:18:19;5.83;;;4.67;;
11052;SDS011;55230;42.602;23.470;2022-10-16T14:20:48;4.27;;;3.13;;
11052;SDS011;55230;42.602;23.470;2022-10-16T14:23:19;7.20;;;5.07;;
11052;SDS011;55230;42.602;23.470;2022-10-16T14:25:48;13.47;;;9.03;;
11052;SDS011;55230;42.602;23.470;2022-10-16T14:28:16;34.37;;;19.63;;
11052;SDS011;55230;42.602;23.470;2022-10-16T14:30:50;6.93;;;4.77;;
11052;SDS011;55230;42.602;23.470;2022-10-16T14:33:21;13.07;;;8.87;;
11052;SDS011;55230;42.602;23.470;2022-10-16T14:36:00;14.70;;;10.80;;
11052;SDS011;55230;42.602;23.470;2022-10-16T14:38:29;7.40;;;4.20;;
11052;SDS011;55230;42.602;23.470;2022-10-16T14:40:57;8.20;;;6.80;;
11052;SDS011;55230;42.602;23.470;2022-10-16T14:43:28;8.60;;;5.30;;
11052;SDS011;55230;42.602;23.470;2022-10-16T14:45:59;8.13;;;5.37;;
11052;SDS011;55230;42.602;23.470;2022-10-16T14:48:29;10.17;;;7.07;;
11052;SDS011;55230;42.602;23.470;2022-10-16T14:50:56;16.50;;;9.23;;
11052;SDS011;55230;42.602;23.470;2022-10-16T14:53:22;20.33;;;11.43;;
11052;SDS011;55230;42.602;23.470;2022-10-16T14:55:49;14.40;;;8.20;;
11052;SDS011;55230;42.602;23.470;2022-10-16T14:58:17;11.90;;;7.20;;